Airfield :
LOGIN :

Register | Disclaimer

   EN    FR    IT 

 










Legend :    VFR   Marginal VFR   IFR   Intensive IFR   Very Intensive IFR
Visi :
Ceiling :
>= 8 km
>= 3000ft
5 to 8 km
1000 to 3000 ft
1500m to 5 km
500 to 1000 ft
800 to 1500m
200 to 500 ft
< 800m
< 200 ft
Symbols :   Thunderstorms  Fog  Heavy snow  Heavy precipitations  Wind > 20 kt
SIGMETs :     Misc.  Thunderstorms  Icing  Turbulence  Mountain Waves  Volcanic Ashes






- Airport Elevation : 257 ft
- IATA code : MAN


EGCC - Manchester

CURRENT METAR :
  • 122250Z AUTO 23004KT 9999 NCD 14/07 Q1025

EXPIRED METARs :
  • 122220Z AUTO 23004KT 9999 NCD 15/08 Q1025 NOSIG
  • 122150Z AUTO 20003KT 9999 NCD 16/10 Q1026 NOSIG
  • 122120Z AUTO 19002KT 9999 NCD 16/11 Q1026
  • 122050Z AUTO VRB02KT 9999 NCD 16/10 Q1026 NOSIG
  • 122020Z AUTO 29003KT 9999 NCD 17/10 Q1026

TAF AMD TAF EGCC
Valid from the 12 at 21:00 until the 14 at 00:00 UTC


122138Z 1221/1324 19005KT 9999 SCT040
TEMPO 1305/1316 5000 -RADZ BKN012
PROB30
TEMPO 1306/1312 2000 RADZ BKN005
BECMG 1309/1312 25010KT
BECMG 1312/1315 31007KT
PROB30
TEMPO 1316/1324 8000 -SHRA BKN014
ATIS : +44 161 499 2324



MET'MAP, your aeronautical weather chart ! - Copyright ORBIFLY December 2007 - Disclaimer

ORBIFLY MET'MAP TEAM :

Programming & Development : Alexandra Zaïnal
Concept & original design : Baudouin d'Aumeries
Assistance for programming : Marc-Olivier Méhu
Technical & hardware support : Manuel Goepfert

Contact : metmap@orbifly.com




SOURCES & CREDITS :

   NOAA